createdAt,value
2022-10-03T00:00:02.143Z,10.00
2022-10-03T00:00:23.186Z,9.80
2022-10-03T00:00:44.234Z,9.40
2022-10-03T00:01:05.290Z,10.00
2022-10-03T00:01:26.432Z,10.70
2022-10-03T00:01:47.544Z,10.40
2022-10-03T00:02:08.605Z,10.20
2022-10-03T00:02:29.761Z,10.30
2022-10-03T00:02:50.871Z,10.70
2022-10-03T00:03:11.970Z,10.00
2022-10-03T00:03:32.992Z,10.40
2022-10-03T00:03:54.069Z,10.70
2022-10-03T00:04:15.114Z,10.40
2022-10-03T00:04:36.187Z,10.50
2022-10-03T00:04:57.245Z,10.70
2022-10-03T00:05:18.296Z,10.70
2022-10-03T00:05:39.346Z,10.50
2022-10-03T00:06:00.398Z,10.50
2022-10-03T00:06:21.457Z,10.30
2022-10-03T00:06:42.515Z,10.00
2022-10-03T00:07:03.567Z,10.40
2022-10-03T00:07:24.634Z,11.40
2022-10-03T00:07:45.701Z,10.70
2022-10-03T00:08:06.779Z,10.30
2022-10-03T00:08:27.823Z,10.60
2022-10-03T00:08:48.869Z,10.30
2022-10-03T00:09:09.942Z,10.10
2022-10-03T00:09:30.967Z,10.10
2022-10-03T00:09:52.045Z,9.80
2022-10-03T00:10:13.088Z,9.40
2022-10-03T00:10:34.140Z,10.10
2022-10-03T00:10:55.203Z,10.60
2022-10-03T00:11:16.245Z,10.40
2022-10-03T00:11:37.533Z,9.90
2022-10-03T00:11:58.712Z,10.20
2022-10-03T00:12:19.767Z,10.00
2022-10-03T00:12:40.812Z,10.00
2022-10-03T00:13:01.878Z,10.20
2022-10-03T00:13:22.967Z,10.00
2022-10-03T00:13:44.137Z,10.20
2022-10-03T00:14:05.213Z,9.60
2022-10-03T00:14:26.252Z,9.90
2022-10-03T00:14:47.301Z,10.20
2022-10-03T00:15:08.353Z,10.20
2022-10-03T00:15:29.417Z,10.30
2022-10-03T00:15:50.529Z,10.40
2022-10-03T00:16:11.602Z,10.40
2022-10-03T00:16:32.740Z,9.80
2022-10-03T00:16:53.775Z,9.70
2022-10-03T00:17:14.815Z,10.10
2022-10-03T00:17:35.869Z,10.20
2022-10-03T00:17:56.945Z,10.20
2022-10-03T00:18:17.992Z,10.30
2022-10-03T00:18:39.057Z,10.20
2022-10-03T00:19:00.212Z,9.90
2022-10-03T00:19:21.255Z,10.20
2022-10-03T00:19:42.311Z,10.20
2022-10-03T00:20:03.404Z,9.90
2022-10-03T00:20:24.433Z,10.20
2022-10-03T00:20:45.490Z,9.90
2022-10-03T00:21:06.543Z,9.90
2022-10-03T00:21:27.606Z,9.70
2022-10-03T00:21:48.662Z,10.00
2022-10-03T00:22:09.753Z,10.00
2022-10-03T00:22:30.824Z,9.80
2022-10-03T00:22:51.877Z,9.90
2022-10-03T00:23:12.930Z,10.00
2022-10-03T00:23:34.015Z,9.60
2022-10-03T00:23:55.048Z,9.90
2022-10-03T00:24:16.126Z,10.10
2022-10-03T00:24:37.155Z,10.20
2022-10-03T00:24:58.224Z,10.10
2022-10-03T00:25:19.282Z,9.70
2022-10-03T00:25:40.366Z,10.10
2022-10-03T00:26:01.379Z,9.90
2022-10-03T00:26:22.434Z,9.80
2022-10-03T00:26:43.481Z,9.70
2022-10-03T00:27:04.528Z,10.10
2022-10-03T00:27:25.730Z,10.40
2022-10-03T00:27:46.781Z,10.00
2022-10-03T00:28:07.902Z,9.80
2022-10-03T00:28:29.073Z,9.90
2022-10-03T00:28:50.121Z,10.10
2022-10-03T00:29:11.176Z,9.90
2022-10-03T00:29:32.253Z,9.70
2022-10-03T00:29:53.340Z,9.70
2022-10-03T00:30:14.353Z,10.50
2022-10-03T00:30:35.427Z,9.60
2022-10-03T00:30:56.573Z,9.80
2022-10-03T00:31:17.712Z,10.20
2022-10-03T00:31:39.171Z,9.70
2022-10-03T00:32:00.480Z,9.20
2022-10-03T00:32:21.514Z,9.00
2022-10-03T00:32:42.676Z,9.90
2022-10-03T00:33:03.728Z,9.60
2022-10-03T00:33:24.775Z,9.90
2022-10-03T00:33:45.832Z,9.30
2022-10-03T00:34:06.907Z,9.30
2022-10-03T00:34:28.003Z,9.70
2022-10-03T00:34:49.014Z,10.00
2022-10-03T00:35:10.071Z,10.10
2022-10-03T00:35:31.123Z,9.80
2022-10-03T00:35:52.173Z,10.00
2022-10-03T00:36:13.228Z,9.60
2022-10-03T00:36:34.286Z,9.90
2022-10-03T00:36:55.341Z,10.50
2022-10-03T00:37:16.386Z,9.90
2022-10-03T00:37:37.436Z,9.30
2022-10-03T00:37:58.625Z,9.10
2022-10-03T00:38:19.669Z,9.70
2022-10-03T00:38:40.718Z,9.80
2022-10-03T00:39:01.780Z,10.50
2022-10-03T00:39:22.898Z,10.20
2022-10-03T00:39:43.922Z,10.30
2022-10-03T00:40:04.965Z,9.80
2022-10-03T00:40:26.017Z,10.00
2022-10-03T00:40:47.068Z,9.70
2022-10-03T00:41:08.130Z,9.90
2022-10-03T00:41:29.186Z,10.60
2022-10-03T00:41:50.253Z,10.70
2022-10-03T00:42:11.299Z,10.90
2022-10-03T00:42:32.384Z,11.30
2022-10-03T00:42:53.418Z,11.10
2022-10-03T00:43:14.559Z,11.30
2022-10-03T00:43:35.606Z,10.50
2022-10-03T00:43:56.658Z,10.50
2022-10-03T00:44:17.709Z,10.60
2022-10-03T00:44:38.776Z,10.60
2022-10-03T00:44:59.860Z,10.80
2022-10-03T00:45:20.917Z,11.00
2022-10-03T00:45:41.972Z,10.70
2022-10-03T00:46:03.156Z,11.00
2022-10-03T00:46:24.257Z,11.30
2022-10-03T00:46:45.365Z,11.20
2022-10-03T00:47:06.431Z,11.20
2022-10-03T00:47:27.481Z,11.10
2022-10-03T00:47:48.533Z,10.90
2022-10-03T00:48:09.586Z,11.30
2022-10-03T00:48:30.754Z,11.00
2022-10-03T00:48:51.803Z,11.20
2022-10-03T00:49:12.862Z,11.00
2022-10-03T00:49:33.943Z,11.30
2022-10-03T00:49:54.999Z,10.80
2022-10-03T00:50:16.150Z,10.20
2022-10-03T00:50:37.199Z,10.60
2022-10-03T00:50:58.269Z,10.90
2022-10-03T00:51:19.314Z,10.80
2022-10-03T00:51:40.682Z,11.30
2022-10-03T00:52:01.923Z,10.70
2022-10-03T00:52:22.955Z,10.90
2022-10-03T00:52:44.011Z,10.90
2022-10-03T00:53:05.077Z,10.70
2022-10-03T00:53:26.130Z,11.00
2022-10-03T00:53:47.176Z,10.70
2022-10-03T00:54:08.265Z,11.20
2022-10-03T00:54:29.310Z,10.70
2022-10-03T00:54:50.345Z,10.40
2022-10-03T00:55:11.409Z,10.50
2022-10-03T00:55:32.573Z,10.60
2022-10-03T00:55:53.617Z,10.70
2022-10-03T00:56:14.670Z,10.80
2022-10-03T00:56:35.722Z,10.60
2022-10-03T00:56:56.774Z,10.40
2022-10-03T00:57:17.853Z,10.60
2022-10-03T00:57:38.906Z,11.30
2022-10-03T00:58:00.013Z,11.10
2022-10-03T00:58:21.054Z,10.70
2022-10-03T00:58:42.100Z,11.20
2022-10-03T00:59:03.174Z,9.90
2022-10-03T00:59:24.215Z,10.20
2022-10-03T00:59:48.099Z,10.70
2022-10-03T01:00:09.298Z,10.70
2022-10-03T01:00:30.328Z,10.60
2022-10-03T01:00:51.483Z,10.30
2022-10-03T01:01:12.560Z,10.40
2022-10-03T01:01:33.589Z,10.70
2022-10-03T01:01:54.711Z,10.50
2022-10-03T01:02:15.854Z,10.80
2022-10-03T01:02:37.038Z,10.70
2022-10-03T01:02:58.216Z,10.70
2022-10-03T01:03:19.246Z,11.10
2022-10-03T01:03:40.297Z,11.00
2022-10-03T01:04:01.348Z,10.60
2022-10-03T01:04:22.398Z,10.70
2022-10-03T01:04:43.461Z,11.10
2022-10-03T01:05:04.524Z,10.50
2022-10-03T01:05:25.579Z,11.20
2022-10-03T01:05:46.632Z,11.00
2022-10-03T01:06:07.693Z,10.60
2022-10-03T01:06:28.742Z,10.80
2022-10-03T01:06:49.799Z,10.20
2022-10-03T01:07:10.853Z,10.00
2022-10-03T01:07:31.944Z,10.50
2022-10-03T01:07:52.984Z,10.40
2022-10-03T01:08:14.017Z,10.90
2022-10-03T01:08:35.083Z,11.00
2022-10-03T01:08:56.146Z,10.70
2022-10-03T01:09:17.199Z,10.30
2022-10-03T01:09:38.272Z,10.20
2022-10-03T01:09:59.294Z,10.60
2022-10-03T01:10:20.357Z,10.80
2022-10-03T01:10:41.431Z,11.00
2022-10-03T01:11:02.482Z,10.50
2022-10-03T01:11:23.534Z,10.40
2022-10-03T01:11:44.584Z,10.20
2022-10-03T01:12:05.630Z,10.40
2022-10-03T01:12:26.725Z,10.40
2022-10-03T01:12:47.768Z,10.50
2022-10-03T01:13:08.822Z,10.10
2022-10-03T01:13:29.889Z,10.00
2022-10-03T01:13:50.987Z,10.40
2022-10-03T01:14:12.019Z,10.90
2022-10-03T01:14:33.113Z,10.80
2022-10-03T01:14:54.151Z,10.60
2022-10-03T01:15:15.219Z,10.90
2022-10-03T01:15:36.364Z,11.00
2022-10-03T01:15:57.568Z,10.40
2022-10-03T01:16:18.672Z,11.00
2022-10-03T01:16:39.777Z,10.80
2022-10-03T01:17:00.804Z,11.10
2022-10-03T01:17:21.858Z,11.50
2022-10-03T01:17:42.921Z,11.40
2022-10-03T01:18:03.975Z,11.30
2022-10-03T01:18:25.023Z,10.80
2022-10-03T01:18:46.124Z,10.90
2022-10-03T01:19:07.147Z,10.80
2022-10-03T01:19:28.211Z,11.10
2022-10-03T01:19:49.261Z,10.70
2022-10-03T01:20:10.317Z,10.70
2022-10-03T01:20:31.358Z,10.80
2022-10-03T01:20:52.410Z,10.20
2022-10-03T01:21:13.487Z,10.90
2022-10-03T01:21:34.550Z,10.80
2022-10-03T01:21:55.574Z,10.60
2022-10-03T01:22:16.651Z,10.80
2022-10-03T01:22:37.689Z,10.80
2022-10-03T01:22:58.863Z,11.00
2022-10-03T01:23:19.938Z,11.00
2022-10-03T01:23:40.986Z,10.30
2022-10-03T01:24:02.026Z,10.30
2022-10-03T01:24:23.075Z,10.60
2022-10-03T01:24:44.153Z,10.60
2022-10-03T01:25:05.199Z,10.80
2022-10-03T01:25:26.400Z,11.00
2022-10-03T01:25:47.455Z,10.80
2022-10-03T01:26:08.505Z,11.20
2022-10-03T01:26:29.558Z,10.80
2022-10-03T01:26:50.617Z,10.60
2022-10-03T01:27:11.708Z,10.40
2022-10-03T01:27:32.752Z,10.80
2022-10-03T01:27:53.842Z,11.30
2022-10-03T01:28:15.073Z,10.60
2022-10-03T01:28:36.113Z,10.30
2022-10-03T01:28:57.167Z,10.20
2022-10-03T01:29:18.214Z,10.30
2022-10-03T01:29:39.277Z,10.10
2022-10-03T01:30:00.324Z,9.50
2022-10-03T01:30:21.391Z,10.10
2022-10-03T01:30:42.461Z,10.60
2022-10-03T01:31:03.568Z,10.70
2022-10-03T01:31:24.680Z,10.60
2022-10-03T01:31:45.767Z,10.20
2022-10-03T01:32:06.772Z,10.10
2022-10-03T01:32:27.839Z,10.00
2022-10-03T01:32:48.891Z,10.20
2022-10-03T01:33:09.962Z,10.40
2022-10-03T01:33:31.105Z,10.40
2022-10-03T01:33:52.165Z,10.20
2022-10-03T01:34:13.229Z,10.00
2022-10-03T01:34:34.293Z,9.50
2022-10-03T01:34:55.332Z,10.10
2022-10-03T01:35:16.410Z,9.80
2022-10-03T01:35:37.483Z,10.40
2022-10-03T01:35:58.518Z,10.20
2022-10-03T01:36:19.577Z,10.30
2022-10-03T01:36:40.633Z,10.60
2022-10-03T01:37:01.701Z,9.70
2022-10-03T01:37:22.763Z,9.50
2022-10-03T01:37:43.818Z,9.50
2022-10-03T01:38:04.910Z,9.60
2022-10-03T01:38:25.952Z,9.50
2022-10-03T01:38:47.010Z,9.40
2022-10-03T01:39:08.067Z,9.60
2022-10-03T01:39:29.133Z,9.60
2022-10-03T01:39:50.204Z,9.00
2022-10-03T01:40:11.336Z,9.30
2022-10-03T01:40:32.361Z,9.20
2022-10-03T01:40:53.410Z,9.10
2022-10-03T01:41:14.468Z,8.50
2022-10-03T01:41:35.530Z,8.40
2022-10-03T01:41:56.577Z,8.70
2022-10-03T01:42:17.658Z,8.70
2022-10-03T01:42:38.698Z,8.80
2022-10-03T01:42:59.745Z,9.10
2022-10-03T01:43:20.814Z,9.00
2022-10-03T01:43:41.878Z,8.90
2022-10-03T01:44:02.910Z,9.10
2022-10-03T01:44:23.969Z,8.80
2022-10-03T01:44:45.154Z,8.80
2022-10-03T01:45:06.374Z,8.80
2022-10-03T01:45:27.435Z,8.80
2022-10-03T01:45:48.478Z,8.80
2022-10-03T01:46:09.595Z,8.90
2022-10-03T01:46:30.718Z,9.10
2022-10-03T01:46:51.848Z,8.50
2022-10-03T01:47:12.986Z,8.50
2022-10-03T01:47:34.017Z,8.50
2022-10-03T01:47:55.065Z,8.60
2022-10-03T01:48:16.130Z,8.80
2022-10-03T01:48:37.218Z,8.60
2022-10-03T01:48:58.254Z,8.20
2022-10-03T01:49:19.304Z,8.30
2022-10-03T01:49:40.455Z,8.30
2022-10-03T01:50:01.657Z,8.40
2022-10-03T01:50:22.714Z,8.40
2022-10-03T01:50:43.770Z,8.60
2022-10-03T01:51:04.821Z,8.50
2022-10-03T01:51:25.883Z,9.00
2022-10-03T01:51:46.956Z,9.00
2022-10-03T01:52:07.979Z,8.80
2022-10-03T01:52:29.141Z,9.20
2022-10-03T01:52:50.197Z,9.30
2022-10-03T01:53:11.250Z,8.60
2022-10-03T01:53:32.328Z,8.60
2022-10-03T01:53:53.397Z,9.20
2022-10-03T01:54:14.431Z,9.20
2022-10-03T01:54:35.494Z,9.40
2022-10-03T01:54:56.579Z,9.80
2022-10-03T01:55:17.711Z,9.70
2022-10-03T01:55:38.765Z,10.10
2022-10-03T01:55:59.837Z,10.20
2022-10-03T01:56:20.892Z,9.70
2022-10-03T01:56:41.932Z,9.50
2022-10-03T01:57:02.982Z,9.70
2022-10-03T01:57:24.033Z,9.40
2022-10-03T01:57:45.075Z,9.30
2022-10-03T01:58:06.129Z,9.00
2022-10-03T01:58:27.186Z,9.00
2022-10-03T01:58:48.257Z,9.50
2022-10-03T01:59:09.278Z,9.50
2022-10-03T01:59:30.340Z,9.80
2022-10-03T01:59:51.387Z,9.70
2022-10-03T02:00:12.434Z,9.50
2022-10-03T02:00:33.605Z,8.90
2022-10-03T02:00:54.688Z,9.30
2022-10-03T02:01:15.811Z,9.80
2022-10-03T02:01:37.210Z,9.30
2022-10-03T02:01:58.629Z,9.20
2022-10-03T02:02:19.716Z,9.10
2022-10-03T02:02:40.725Z,9.30
2022-10-03T02:03:01.784Z,9.60
2022-10-03T02:03:22.893Z,9.00
2022-10-03T02:03:43.916Z,9.50
2022-10-03T02:04:04.970Z,9.30
2022-10-03T02:04:26.009Z,9.50
2022-10-03T02:04:47.056Z,9.30
2022-10-03T02:05:08.111Z,9.20
2022-10-03T02:05:29.295Z,9.60
2022-10-03T02:05:50.337Z,9.00
2022-10-03T02:06:11.407Z,8.70
2022-10-03T02:06:32.445Z,8.70
2022-10-03T02:06:53.492Z,8.60
2022-10-03T02:07:14.556Z,8.40
2022-10-03T02:07:35.590Z,8.40
2022-10-03T02:07:56.639Z,8.20
2022-10-03T02:08:17.691Z,8.30
2022-10-03T02:08:38.738Z,8.20
2022-10-03T02:08:59.819Z,8.20
2022-10-03T02:09:20.859Z,8.60
2022-10-03T02:09:41.916Z,8.80
2022-10-03T02:10:02.990Z,8.80
2022-10-03T02:10:24.038Z,8.40
2022-10-03T02:10:45.087Z,8.60
2022-10-03T02:11:06.167Z,8.30
2022-10-03T02:11:27.251Z,8.50
2022-10-03T02:11:48.279Z,8.70
2022-10-03T02:12:09.322Z,8.70
2022-10-03T02:12:30.380Z,9.00
2022-10-03T02:12:51.433Z,8.80
2022-10-03T02:13:12.495Z,9.10
2022-10-03T02:13:33.537Z,8.80
2022-10-03T02:13:54.599Z,8.90
2022-10-03T02:14:15.684Z,8.60
2022-10-03T02:14:36.709Z,8.30
2022-10-03T02:14:57.811Z,8.10
2022-10-03T02:15:18.849Z,8.20
2022-10-03T02:15:39.913Z,8.40
2022-10-03T02:16:01.011Z,8.70
2022-10-03T02:16:22.138Z,8.80
2022-10-03T02:16:43.221Z,8.40
2022-10-03T02:17:04.258Z,8.30
2022-10-03T02:17:25.308Z,8.70
2022-10-03T02:17:46.365Z,8.40
2022-10-03T02:18:07.414Z,8.50
2022-10-03T02:18:28.460Z,8.90
2022-10-03T02:18:49.507Z,8.80
2022-10-03T02:19:10.557Z,8.70
2022-10-03T02:19:31.606Z,8.80
2022-10-03T02:19:52.659Z,9.20
2022-10-03T02:20:13.740Z,8.80
2022-10-03T02:20:34.772Z,8.60
2022-10-03T02:20:55.825Z,9.00
2022-10-03T02:21:16.881Z,8.60
2022-10-03T02:21:38.212Z,8.80
2022-10-03T02:21:59.403Z,8.60
2022-10-03T02:22:20.470Z,8.40
2022-10-03T02:22:41.498Z,8.50
2022-10-03T02:23:02.549Z,8.70
2022-10-03T02:23:23.605Z,8.30
2022-10-03T02:23:44.646Z,8.40
2022-10-03T02:24:05.722Z,8.40
2022-10-03T02:24:26.775Z,8.50
2022-10-03T02:24:47.825Z,8.90
2022-10-03T02:25:08.893Z,9.10
2022-10-03T02:25:29.968Z,8.60
2022-10-03T02:25:51.001Z,8.30
2022-10-03T02:26:12.071Z,8.50
2022-10-03T02:26:33.223Z,7.80
2022-10-03T02:26:58.253Z,8.70
2022-10-03T02:27:19.527Z,8.90
2022-10-03T02:27:40.588Z,8.30
2022-10-03T02:28:01.672Z,8.50
2022-10-03T02:28:22.738Z,8.60
2022-10-03T02:28:43.806Z,8.70
2022-10-03T02:29:04.855Z,9.00
2022-10-03T02:29:25.926Z,8.70
2022-10-03T02:29:46.959Z,8.60
2022-10-03T02:30:08.025Z,9.10
2022-10-03T02:30:29.093Z,8.60
2022-10-03T02:30:50.121Z,8.50
2022-10-03T02:31:11.237Z,8.80
2022-10-03T02:31:32.452Z,9.10
2022-10-03T02:31:53.750Z,9.10
2022-10-03T02:32:14.784Z,8.90
2022-10-03T02:32:35.827Z,8.60
2022-10-03T02:32:56.874Z,8.90
2022-10-03T02:33:17.921Z,8.50
2022-10-03T02:33:38.971Z,9.00
2022-10-03T02:34:00.034Z,8.80
2022-10-03T02:34:21.075Z,8.40
2022-10-03T02:34:42.162Z,8.90
2022-10-03T02:35:03.206Z,8.90
2022-10-03T02:35:24.254Z,8.70
2022-10-03T02:35:45.307Z,8.50
2022-10-03T02:36:06.351Z,8.80
2022-10-03T02:36:27.411Z,9.00
2022-10-03T02:36:48.470Z,8.90
2022-10-03T02:37:09.578Z,8.40
2022-10-03T02:37:30.619Z,8.30
2022-10-03T02:37:51.670Z,8.40
2022-10-03T02:38:12.715Z,8.70
2022-10-03T02:38:33.766Z,8.90
2022-10-03T02:38:54.806Z,8.50
2022-10-03T02:39:15.903Z,8.70
2022-10-03T02:39:36.950Z,8.70
2022-10-03T02:39:57.993Z,8.40
2022-10-03T02:40:19.142Z,8.10
2022-10-03T02:40:40.149Z,8.00
2022-10-03T02:41:01.188Z,8.20
2022-10-03T02:41:22.288Z,8.30
2022-10-03T02:41:43.291Z,9.30
2022-10-03T02:42:04.346Z,9.10
2022-10-03T02:42:25.451Z,8.90
2022-10-03T02:42:46.494Z,8.20
2022-10-03T02:43:07.545Z,8.70
2022-10-03T02:43:28.618Z,9.00
2022-10-03T02:43:49.660Z,9.00
2022-10-03T02:44:10.720Z,9.00
2022-10-03T02:44:31.759Z,8.60
2022-10-03T02:44:52.814Z,8.40
2022-10-03T02:45:13.865Z,8.70
2022-10-03T02:45:34.985Z,8.90
2022-10-03T02:45:56.104Z,9.00
2022-10-03T02:46:17.114Z,8.40
2022-10-03T02:46:38.161Z,7.90
2022-10-03T02:46:59.220Z,8.10
2022-10-03T02:47:20.272Z,8.20
2022-10-03T02:47:41.445Z,8.00
2022-10-03T02:48:26.983Z,7.70
2022-10-03T02:48:32.125Z,7.90
2022-10-03T02:48:53.630Z,7.10
2022-10-03T02:49:14.678Z,7.40
2022-10-03T02:49:35.734Z,7.80
2022-10-03T02:49:56.785Z,7.90
2022-10-03T02:50:17.843Z,8.00
2022-10-03T02:50:38.910Z,8.00
2022-10-03T02:51:00.012Z,8.60
2022-10-03T02:51:21.154Z,8.90
2022-10-03T02:51:42.512Z,9.10
2022-10-03T02:52:03.741Z,8.70
2022-10-03T02:52:24.792Z,8.60
2022-10-03T02:52:45.847Z,8.40
2022-10-03T02:53:06.894Z,8.60
2022-10-03T02:53:27.949Z,9.40
2022-10-03T02:53:48.981Z,8.90
2022-10-03T02:54:10.035Z,8.90
2022-10-03T02:54:31.088Z,9.40
2022-10-03T02:54:52.190Z,9.30
2022-10-03T02:55:13.206Z,9.20
2022-10-03T02:55:34.279Z,9.70
2022-10-03T02:55:55.312Z,9.30
2022-10-03T02:56:16.358Z,9.60
2022-10-03T02:56:37.409Z,9.60
2022-10-03T02:56:58.451Z,9.60
2022-10-03T02:57:19.516Z,10.20
2022-10-03T02:57:40.571Z,9.90
2022-10-03T02:58:01.620Z,10.20
2022-10-03T02:58:22.667Z,10.50
2022-10-03T02:58:43.714Z,10.20
2022-10-03T02:59:04.801Z,9.40
2022-10-03T02:59:25.813Z,9.80
2022-10-03T02:59:46.858Z,9.90
2022-10-03T03:00:07.933Z,10.20
2022-10-03T03:00:28.968Z,9.80
2022-10-03T03:00:50.082Z,10.30
2022-10-03T03:01:11.202Z,10.30
2022-10-03T03:01:32.290Z,10.00
2022-10-03T03:01:53.382Z,9.40
2022-10-03T03:02:14.426Z,9.60
2022-10-03T03:02:35.568Z,9.70
2022-10-03T03:02:56.636Z,9.40
2022-10-03T03:03:17.688Z,9.70
2022-10-03T03:03:38.738Z,9.80
2022-10-03T03:03:59.782Z,9.70
2022-10-03T03:04:20.856Z,9.80
2022-10-03T03:04:41.884Z,10.00
2022-10-03T03:05:02.931Z,9.80
2022-10-03T03:05:24.106Z,9.70
2022-10-03T03:05:45.153Z,9.20
2022-10-03T03:06:06.203Z,9.00
2022-10-03T03:06:27.250Z,9.00
2022-10-03T03:06:48.295Z,9.20
2022-10-03T03:07:09.354Z,9.80
2022-10-03T03:07:30.401Z,9.50
2022-10-03T03:07:51.443Z,9.60
2022-10-03T03:08:12.513Z,10.10
2022-10-03T03:08:33.598Z,10.00
2022-10-03T03:08:54.629Z,10.00
2022-10-03T03:09:15.692Z,9.90
2022-10-03T03:09:36.761Z,10.10
2022-10-03T03:09:57.795Z,10.40
2022-10-03T03:10:18.843Z,10.10
2022-10-03T03:10:39.962Z,10.40
2022-10-03T03:11:00.984Z,10.30
2022-10-03T03:11:22.035Z,10.60
2022-10-03T03:11:43.117Z,10.20
2022-10-03T03:12:04.254Z,10.40
2022-10-03T03:12:25.323Z,10.50
2022-10-03T03:12:46.368Z,10.50
2022-10-03T03:13:07.414Z,10.60
2022-10-03T03:13:28.476Z,11.20
2022-10-03T03:13:49.556Z,10.60
2022-10-03T03:14:10.582Z,10.50
2022-10-03T03:14:31.659Z,10.40
2022-10-03T03:14:52.704Z,10.40
2022-10-03T03:15:13.773Z,10.20
2022-10-03T03:15:34.821Z,10.60
2022-10-03T03:15:55.915Z,10.70
2022-10-03T03:16:16.986Z,10.60
2022-10-03T03:16:38.058Z,10.30
2022-10-03T03:16:59.090Z,10.00
2022-10-03T03:17:20.157Z,9.90
2022-10-03T03:17:41.227Z,10.20
2022-10-03T03:18:02.250Z,10.40
2022-10-03T03:18:23.293Z,10.00
2022-10-03T03:18:44.344Z,10.30
2022-10-03T03:19:05.395Z,10.30
2022-10-03T03:19:26.443Z,10.00
2022-10-03T03:19:47.491Z,10.30
2022-10-03T03:20:08.541Z,10.40
2022-10-03T03:20:29.603Z,10.70
2022-10-03T03:20:50.676Z,10.90
2022-10-03T03:21:11.746Z,10.80
2022-10-03T03:21:32.796Z,10.20
2022-10-03T03:21:53.846Z,10.10
2022-10-03T03:22:14.920Z,9.90
2022-10-03T03:22:35.969Z,10.00
2022-10-03T03:22:57.059Z,10.20
2022-10-03T03:23:18.092Z,10.30
2022-10-03T03:23:39.144Z,10.40
2022-10-03T03:24:00.186Z,10.40
2022-10-03T03:24:21.231Z,9.50
2022-10-03T03:24:42.287Z,10.10
2022-10-03T03:25:03.329Z,10.20
2022-10-03T03:25:24.372Z,9.80
2022-10-03T03:25:45.461Z,10.50
2022-10-03T03:26:06.474Z,10.50
2022-10-03T03:26:27.539Z,9.80
2022-10-03T03:26:48.582Z,10.10
2022-10-03T03:27:09.637Z,10.30
2022-10-03T03:27:30.686Z,10.10
2022-10-03T03:27:51.772Z,9.80
2022-10-03T03:28:12.872Z,9.50
2022-10-03T03:28:33.960Z,9.50
2022-10-03T03:28:55.843Z,9.40
2022-10-03T03:29:16.964Z,9.50
2022-10-03T03:29:38.014Z,9.40
2022-10-03T03:29:59.060Z,9.30
2022-10-03T03:30:20.109Z,9.20
2022-10-03T03:30:41.217Z,9.50
2022-10-03T03:31:02.236Z,9.50
2022-10-03T03:31:23.384Z,9.00
2022-10-03T03:31:44.732Z,9.00
2022-10-03T03:32:05.894Z,8.90
2022-10-03T03:32:26.953Z,8.80
2022-10-03T03:32:48.000Z,9.30
2022-10-03T03:33:09.081Z,8.90
2022-10-03T03:33:30.110Z,9.00
2022-10-03T03:33:51.164Z,8.70
2022-10-03T03:34:12.218Z,8.90
2022-10-03T03:34:33.261Z,8.80
2022-10-03T03:34:54.320Z,9.20
2022-10-03T03:35:15.372Z,9.00
2022-10-03T03:35:36.418Z,9.30
2022-10-03T03:35:57.463Z,9.40
2022-10-03T03:36:18.502Z,9.40
2022-10-03T03:36:39.550Z,9.00
2022-10-03T03:37:00.644Z,8.60
2022-10-03T03:37:21.689Z,8.60
2022-10-03T03:37:42.757Z,9.10
2022-10-03T03:38:03.791Z,9.60
2022-10-03T03:38:24.848Z,9.30
2022-10-03T03:38:45.882Z,9.10
2022-10-03T03:39:06.935Z,9.00
2022-10-03T03:39:27.977Z,9.20
2022-10-03T03:39:49.034Z,8.50
2022-10-03T03:40:10.069Z,9.20
2022-10-03T03:40:31.135Z,9.50
2022-10-03T03:40:52.262Z,8.80
2022-10-03T03:41:13.258Z,8.90
2022-10-03T03:41:34.308Z,9.20
2022-10-03T03:41:55.362Z,8.70
2022-10-03T03:42:16.466Z,9.00
2022-10-03T03:42:37.516Z,8.80
2022-10-03T03:42:58.564Z,8.90
2022-10-03T03:43:19.634Z,9.00
2022-10-03T03:43:40.670Z,9.10
2022-10-03T03:44:01.721Z,8.70
2022-10-03T03:44:22.777Z,8.70
2022-10-03T03:44:43.811Z,8.90
2022-10-03T03:45:04.860Z,9.20
2022-10-03T03:45:25.938Z,9.40
2022-10-03T03:45:47.052Z,9.60
2022-10-03T03:46:08.113Z,9.40
2022-10-03T03:46:29.199Z,8.80
2022-10-03T03:46:50.245Z,9.00
2022-10-03T03:47:11.298Z,8.70
2022-10-03T03:47:32.369Z,8.70
2022-10-03T03:47:53.425Z,9.20
2022-10-03T03:48:14.494Z,9.10
2022-10-03T03:48:35.511Z,8.80
2022-10-03T03:48:56.556Z,8.70
2022-10-03T03:49:17.620Z,8.80
2022-10-03T03:49:38.653Z,9.10
2022-10-03T03:49:59.717Z,8.90
2022-10-03T03:50:20.777Z,8.70
2022-10-03T03:50:41.888Z,8.50
2022-10-03T03:51:03.954Z,8.80
2022-10-03T03:51:24.964Z,8.80
2022-10-03T03:51:46.006Z,8.80
2022-10-03T03:52:07.055Z,8.40
2022-10-03T03:52:28.099Z,8.70
2022-10-03T03:52:49.316Z,8.80
2022-10-03T03:53:10.330Z,8.80
2022-10-03T03:53:31.381Z,8.70
2022-10-03T03:53:52.430Z,8.70
2022-10-03T03:54:13.481Z,8.60
2022-10-03T03:54:34.527Z,8.50
2022-10-03T03:54:55.587Z,8.20
2022-10-03T03:55:16.644Z,8.50
2022-10-03T03:55:37.698Z,9.00
2022-10-03T03:55:58.777Z,8.70
2022-10-03T03:56:19.813Z,8.80
2022-10-03T03:56:40.868Z,9.00
2022-10-03T03:57:01.920Z,8.00
2022-10-03T03:57:22.983Z,8.40
2022-10-03T03:57:44.031Z,8.40
2022-10-03T03:58:05.100Z,8.60
2022-10-03T03:58:26.141Z,8.60
2022-10-03T03:58:47.184Z,8.70
2022-10-03T03:59:08.240Z,8.80
2022-10-03T03:59:29.312Z,8.70
2022-10-03T03:59:50.344Z,8.50
2022-10-03T04:00:11.404Z,8.80
2022-10-03T04:00:32.463Z,8.60
2022-10-03T04:00:53.599Z,8.40
2022-10-03T04:01:14.720Z,8.90
2022-10-03T04:01:35.808Z,8.50
2022-10-03T04:01:56.945Z,8.90
2022-10-03T04:02:18.039Z,9.60
2022-10-03T04:02:39.117Z,9.10
2022-10-03T04:03:00.187Z,8.80
2022-10-03T04:03:21.346Z,8.70
2022-10-03T04:03:42.411Z,8.40
2022-10-03T04:04:03.467Z,8.30
2022-10-03T04:04:24.516Z,8.30
2022-10-03T04:04:45.567Z,8.90
2022-10-03T04:05:06.630Z,9.30
2022-10-03T04:05:27.686Z,9.10
2022-10-03T04:05:48.736Z,9.10
2022-10-03T04:06:09.786Z,9.40
2022-10-03T04:06:30.825Z,9.50
2022-10-03T04:06:51.875Z,9.40
2022-10-03T04:07:12.937Z,9.20
2022-10-03T04:07:33.973Z,9.20
2022-10-03T04:07:55.021Z,9.50
2022-10-03T04:08:16.078Z,9.70
2022-10-03T04:08:37.269Z,10.40
2022-10-03T04:08:58.311Z,10.10
2022-10-03T04:09:19.354Z,10.20
2022-10-03T04:09:40.417Z,9.30
2022-10-03T04:10:01.472Z,9.80
2022-10-03T04:10:22.533Z,10.20
2022-10-03T04:10:43.566Z,9.80
2022-10-03T04:11:04.669Z,9.60
2022-10-03T04:11:25.700Z,10.00
2022-10-03T04:11:46.744Z,10.80
2022-10-03T04:12:07.786Z,10.70
2022-10-03T04:12:28.834Z,10.10
2022-10-03T04:12:49.895Z,10.60
2022-10-03T04:13:10.940Z,9.40
2022-10-03T04:13:32.003Z,9.20
2022-10-03T04:13:53.198Z,9.50
2022-10-03T04:14:14.232Z,8.90
2022-10-03T04:14:35.281Z,9.10
2022-10-03T04:14:56.341Z,9.30
2022-10-03T04:15:17.413Z,8.80
2022-10-03T04:15:38.456Z,8.90
2022-10-03T04:15:59.501Z,9.60
2022-10-03T04:16:20.649Z,9.60
2022-10-03T04:16:41.775Z,9.50
2022-10-03T04:17:02.801Z,8.80
2022-10-03T04:17:23.844Z,9.50
2022-10-03T04:17:44.910Z,10.10
2022-10-03T04:18:05.985Z,9.80
2022-10-03T04:18:26.995Z,9.80
2022-10-03T04:18:48.168Z,10.80
2022-10-03T04:19:09.220Z,10.30
2022-10-03T04:19:30.264Z,9.70
2022-10-03T04:19:51.317Z,9.80
2022-10-03T04:20:12.357Z,11.20
2022-10-03T04:20:33.411Z,10.60
2022-10-03T04:20:54.507Z,10.00
2022-10-03T04:21:18.902Z,11.80
2022-10-03T04:21:40.562Z,12.20
2022-10-03T04:22:01.730Z,10.40
2022-10-03T04:22:22.778Z,9.80
2022-10-03T04:22:43.824Z,9.50
2022-10-03T04:23:04.863Z,9.00
2022-10-03T04:23:25.911Z,9.50
2022-10-03T04:23:46.980Z,9.90
2022-10-03T04:24:08.158Z,9.40
2022-10-03T04:24:29.187Z,10.20
2022-10-03T04:24:50.245Z,9.70
2022-10-03T04:25:11.304Z,10.20
2022-10-03T04:25:32.369Z,10.80
2022-10-03T04:25:53.419Z,10.50
2022-10-03T04:26:14.503Z,9.90
2022-10-03T04:26:35.553Z,9.40
2022-10-03T04:26:56.601Z,9.50
2022-10-03T04:27:17.643Z,9.30
2022-10-03T04:27:38.698Z,9.30
2022-10-03T04:27:59.784Z,9.70
2022-10-03T04:28:20.910Z,10.10
2022-10-03T04:28:41.978Z,9.70
2022-10-03T04:29:03.112Z,9.60
2022-10-03T04:29:24.267Z,9.00
2022-10-03T04:29:45.305Z,8.80
2022-10-03T04:30:06.362Z,8.70
2022-10-03T04:30:27.424Z,8.60
2022-10-03T04:30:48.501Z,8.40
2022-10-03T04:31:09.558Z,8.80
2022-10-03T04:31:30.780Z,8.60
2022-10-03T04:31:51.860Z,8.50
2022-10-03T04:32:12.957Z,8.10
2022-10-03T04:32:33.997Z,8.60
2022-10-03T04:32:55.085Z,9.30
2022-10-03T04:33:16.098Z,8.60
2022-10-03T04:33:37.153Z,8.30
2022-10-03T04:33:58.213Z,8.50
2022-10-03T04:34:19.267Z,8.50
2022-10-03T04:34:40.523Z,8.30
2022-10-03T04:35:01.520Z,8.70
2022-10-03T04:35:22.562Z,8.90
2022-10-03T04:35:43.611Z,9.20
2022-10-03T04:36:04.665Z,9.10
2022-10-03T04:36:25.715Z,8.80
2022-10-03T04:36:46.773Z,8.70
2022-10-03T04:37:07.823Z,9.10